Cleora, South Carolina
Current Conditions -  °F | °C
As of 1:55 PM on Thursday 30 Oct 2014 (Local Time) from KAIK Reporting Station
Clear Clear  
Wind Chill: 70°   Ceiling: Unl
Heat Index: 70°   Visibility: 10mi
Dew Point: 46°   Wind: 7mph
Humidity: 43%   Direction: 360°N
Pressure: 30.03"   Gusts: NA
Location:  33.8233°N, 82.0147°W
Report Text: KAIK 301755Z AUTO 36006KT 10SM CLR 21/08 A3003 RMK AO2 PNO
Loading
Personal Weather Stations






























Interactive Weather Map
Tropical Storm Tracking
New forecast layout! Learn more

10-Day Weather Forecast

Advertisements
Track Severe Weather on mobile